createdAt,value
2019-04-01T00:04:36.668Z,101131.23
2019-04-01T00:09:38.299Z,101130.95
2019-04-01T00:14:40.001Z,101122.88
2019-04-01T00:19:41.725Z,101126.56
2019-04-01T00:24:43.422Z,101129.63
2019-04-01T00:29:45.091Z,101127.72
2019-04-01T00:34:46.623Z,101126.27
2019-04-01T00:39:48.307Z,101130.04
2019-04-01T00:44:49.987Z,101135.73
2019-04-01T00:49:51.689Z,101134.28
2019-04-01T00:54:53.385Z,101139.60
2019-04-01T00:59:55.082Z,101145.10
2019-04-01T01:04:56.633Z,101142.70
2019-04-01T01:09:58.288Z,101147.42
2019-04-01T01:14:59.871Z,101138.39
2019-04-01T01:20:01.678Z,101150.61
2019-04-01T01:25:03.514Z,101153.20
2019-04-01T01:30:05.435Z,101156.03
2019-04-01T01:35:07.123Z,101154.48
2019-04-01T01:40:09.268Z,101145.66
2019-04-01T01:45:10.955Z,101147.67
2019-04-01T01:50:12.654Z,101141.17
2019-04-01T01:55:14.203Z,101140.61
2019-04-01T02:00:16.079Z,101140.00
2019-04-01T02:05:17.740Z,101141.36
2019-04-01T02:10:19.405Z,101141.33
2019-04-01T02:15:21.073Z,101138.52
2019-04-01T02:20:22.747Z,101148.55
2019-04-01T02:25:24.453Z,101149.90
2019-04-01T02:30:26.025Z,101146.88
2019-04-01T02:35:27.865Z,101145.08
2019-04-01T02:40:29.519Z,101141.45
2019-04-01T02:45:31.193Z,101147.84
2019-04-01T02:50:32.912Z,101145.68
2019-04-01T02:55:34.556Z,101138.42
2019-04-01T03:00:36.203Z,101136.70
2019-04-01T03:05:37.895Z,101136.85
2019-04-01T03:10:39.589Z,101143.95
2019-04-01T03:15:41.257Z,101149.28
2019-04-01T03:20:42.925Z,101145.31
2019-04-01T03:25:44.608Z,101143.95
2019-04-01T03:30:46.292Z,101147.95
2019-04-01T03:35:47.930Z,101148.88
2019-04-01T03:40:49.662Z,101152.66
2019-04-01T03:45:51.360Z,101154.05
2019-04-01T03:50:53.080Z,101150.55
2019-04-01T03:55:54.753Z,101142.45
2019-04-01T04:00:56.424Z,101144.14
2019-04-01T04:05:58.145Z,101147.02
2019-04-01T04:10:59.843Z,101150.79
2019-04-01T04:16:01.417Z,101153.84
2019-04-01T04:21:03.190Z,101152.67
2019-04-01T04:26:05.575Z,101153.90
2019-04-01T04:31:07.284Z,101159.13
2019-04-01T04:36:08.953Z,101157.64
2019-04-01T04:41:10.652Z,101154.23
2019-04-01T04:46:12.386Z,101150.73
2019-04-01T04:51:14.127Z,101157.70
2019-04-01T04:56:15.865Z,101164.70
2019-04-01T05:01:17.538Z,101168.60
2019-04-01T05:06:19.099Z,101166.45
2019-04-01T05:11:20.816Z,101166.81
2019-04-01T05:16:22.474Z,101162.09
2019-04-01T05:21:24.143Z,101164.70
2019-04-01T05:26:25.797Z,101176.94
2019-04-01T05:31:27.754Z,101173.77
2019-04-01T05:36:30.827Z,101180.36
2019-04-01T05:41:32.760Z,101180.91
2019-04-01T05:46:34.453Z,101183.28
2019-04-01T05:51:36.139Z,101185.98
2019-04-01T05:56:37.890Z,101187.92
2019-04-01T06:01:44.667Z,101183.33
2019-04-01T06:06:48.866Z,101191.78
2019-04-01T06:11:49.831Z,101193.92
2019-04-01T06:16:51.933Z,101190.92
2019-04-01T06:21:53.603Z,101188.12
2019-04-01T06:26:55.351Z,101192.85
2019-04-01T06:31:57.530Z,101201.02
2019-04-01T06:36:59.168Z,101197.91
2019-04-01T06:42:00.800Z,101195.53
2019-04-01T06:47:02.508Z,101204.46
2019-04-01T06:52:04.162Z,101201.34
2019-04-01T06:57:05.818Z,101192.42
2019-04-01T07:02:07.487Z,101195.91
2019-04-01T07:07:19.013Z,101193.26
2019-04-01T07:12:13.045Z,101196.03
2019-04-01T07:17:14.576Z,101198.20
2019-04-01T07:22:16.126Z,101188.08
2019-04-01T07:27:17.683Z,101185.19
2019-04-01T07:32:19.254Z,101190.77
2019-04-01T07:37:20.955Z,101197.01
2019-04-01T07:42:22.672Z,101193.98
2019-04-01T07:47:24.376Z,101196.50
2019-04-01T07:52:25.985Z,101193.98
2019-04-01T07:57:27.940Z,101195.69
2019-04-01T08:02:29.516Z,101197.84
2019-04-01T08:07:31.155Z,101196.69
2019-04-01T08:12:32.798Z,101198.14
2019-04-01T08:17:34.434Z,101196.16
2019-04-01T08:22:36.083Z,101187.30
2019-04-01T08:27:37.734Z,101188.73
2019-04-01T08:32:39.395Z,101193.52
2019-04-01T08:37:41.049Z,101184.75
2019-04-01T08:42:42.582Z,101185.96
2019-04-01T08:47:44.247Z,101175.87
2019-04-01T08:52:45.911Z,101178.52
2019-04-01T08:57:47.563Z,101183.06
2019-04-01T09:02:49.233Z,101175.94
2019-04-01T09:07:50.886Z,101175.39
2019-04-01T09:12:53.151Z,101174.35
2019-04-01T09:17:54.828Z,101172.33
2019-04-01T09:22:59.077Z,101167.72
2019-04-01T09:27:59.906Z,101173.09
2019-04-01T09:33:01.544Z,101165.35
2019-04-01T09:38:03.211Z,101167.38
2019-04-01T09:43:04.740Z,101163.08
2019-04-01T09:48:06.382Z,101158.18
2019-04-01T09:53:08.052Z,101149.84
2019-04-01T09:58:09.737Z,101154.47
2019-04-01T10:03:11.395Z,101145.97
2019-04-01T10:08:13.063Z,101144.39
2019-04-01T10:13:14.641Z,101132.83
2019-04-01T10:18:16.205Z,101135.53
2019-04-01T10:23:17.852Z,101122.72
2019-04-01T10:28:19.516Z,101108.93
2019-04-01T10:33:21.251Z,101106.91
2019-04-01T10:38:22.817Z,101106.00
2019-04-01T10:43:24.508Z,101093.17
2019-04-01T10:48:26.069Z,101085.55
2019-04-01T10:53:27.797Z,101084.02
2019-04-01T10:58:29.400Z,101078.05
2019-04-01T11:03:31.109Z,101076.27
2019-04-01T11:08:32.833Z,101077.27
2019-04-01T11:13:34.346Z,101069.34
2019-04-01T11:18:35.852Z,101055.41
2019-04-01T11:23:37.398Z,101054.08
2019-04-01T11:28:39.239Z,101050.80
2019-04-01T11:33:40.927Z,101041.20
2019-04-01T11:38:42.948Z,101029.63
2019-04-01T11:43:44.609Z,101035.05
2019-04-01T11:48:46.363Z,101020.03
2019-04-01T11:53:48.051Z,101023.63
2019-04-01T11:58:49.758Z,100994.05
2019-04-01T12:03:51.507Z,100994.05
2019-04-01T12:08:53.176Z,101001.44
2019-04-01T12:13:54.845Z,100990.50
2019-04-01T12:18:56.380Z,100987.66
2019-04-01T12:23:58.696Z,100974.20
2019-04-01T12:29:00.362Z,100960.62
2019-04-01T12:34:01.956Z,100959.72
2019-04-01T12:39:05.824Z,100954.16
2019-04-01T12:44:07.386Z,100941.11
2019-04-01T12:49:09.168Z,100927.67
2019-04-01T12:54:10.832Z,100929.05
2019-04-01T12:59:12.432Z,100909.20
2019-04-01T13:04:14.163Z,100900.84
2019-04-01T13:09:15.881Z,100899.05
2019-04-01T13:14:17.729Z,100888.59
2019-04-01T13:19:19.496Z,100879.30
2019-04-01T13:24:21.053Z,100876.03
2019-04-01T13:29:24.071Z,100865.25
2019-04-01T13:34:25.701Z,100859.31
2019-04-01T13:39:27.361Z,100849.40
2019-04-01T13:44:36.913Z,100831.58
2019-04-01T13:49:32.493Z,100827.25
2019-04-01T13:54:34.175Z,100826.09
2019-04-01T13:59:48.357Z,100824.32
2019-04-01T14:04:39.319Z,100810.22
2019-04-01T14:09:41.300Z,100799.91
2019-04-01T14:14:42.877Z,100796.97
2019-04-01T14:19:44.458Z,100788.84
2019-04-01T14:24:46.025Z,100776.32
2019-04-01T14:29:47.668Z,100775.99
2019-04-01T14:34:50.494Z,100768.99
2019-04-01T14:39:52.442Z,100768.59
2019-04-01T14:44:58.292Z,100764.30
2019-04-01T14:50:00.170Z,100754.53
2019-04-01T14:55:02.611Z,100742.53
2019-04-01T15:00:05.771Z,100740.88
2019-04-01T15:05:07.438Z,100737.95
2019-04-01T15:10:09.327Z,100721.87
2019-04-01T15:15:11.097Z,100716.98
2019-04-01T15:20:13.859Z,100711.92
2019-04-01T15:25:15.411Z,100705.03
2019-04-01T15:30:17.060Z,100706.80
2019-04-01T15:35:18.896Z,100694.51
2019-04-01T15:40:20.542Z,100684.84
2019-04-01T15:45:22.132Z,100682.34
2019-04-01T15:50:28.704Z,100674.17
2019-04-01T15:55:27.439Z,100673.40
2019-04-01T16:00:29.086Z,100657.05
2019-04-01T16:05:30.760Z,100656.94
2019-04-01T16:10:32.370Z,100645.16
2019-04-01T16:15:33.956Z,100636.16
2019-04-01T16:20:35.512Z,100637.95
2019-04-01T16:25:37.698Z,100633.58
2019-04-01T16:30:39.835Z,100629.83
2019-04-01T16:35:41.434Z,100627.05
2019-04-01T16:40:42.982Z,100616.80
2019-04-01T16:45:44.668Z,100619.81
2019-04-01T16:50:46.250Z,100622.52
2019-04-01T16:55:47.913Z,100623.20
2019-04-01T17:00:49.482Z,100623.28
2019-04-01T17:05:51.085Z,100627.83
2019-04-01T17:10:52.653Z,100624.73
2019-04-01T17:15:54.392Z,100621.95
2019-04-01T17:20:55.967Z,100622.81
2019-04-01T17:25:57.574Z,100617.27
2019-04-01T17:30:59.275Z,100617.87
2019-04-01T17:36:00.838Z,100617.79
2019-04-01T17:41:02.675Z,100616.59
2019-04-01T17:46:04.414Z,100629.52
2019-04-01T17:51:06.140Z,100626.98
2019-04-01T17:56:07.896Z,100628.70
2019-04-01T18:01:10.563Z,100624.29
2019-04-01T18:06:12.810Z,100625.85
2019-04-01T18:11:16.154Z,100632.20
2019-04-01T18:16:17.992Z,100637.02
2019-04-01T18:21:19.931Z,100641.91
2019-04-01T18:26:21.532Z,100637.70
2019-04-01T18:31:23.178Z,100642.41
2019-04-01T18:36:24.792Z,100644.31
2019-04-01T18:41:26.365Z,100639.70
2019-04-01T18:46:28.089Z,100651.16
2019-04-01T18:51:29.721Z,100651.48
2019-04-01T18:56:31.317Z,100646.99
2019-04-01T19:01:33.012Z,100643.63
2019-04-01T19:06:35.191Z,100635.50
2019-04-01T19:11:38.106Z,100635.62
2019-04-01T19:16:39.948Z,100639.44
2019-04-01T19:21:41.520Z,100633.89
2019-04-01T19:26:43.145Z,100633.73
2019-04-01T19:31:44.870Z,100635.33
2019-04-01T19:36:46.428Z,100637.25
2019-04-01T19:41:48.990Z,100639.30
2019-04-01T19:46:50.694Z,100634.33
2019-04-01T19:51:52.256Z,100640.40
2019-04-01T19:56:53.844Z,100637.69
2019-04-01T20:01:55.496Z,100630.66
2019-04-01T20:06:57.039Z,100623.41
2019-04-01T20:11:58.593Z,100622.43
2019-04-01T20:17:02.034Z,100618.96
2019-04-01T20:22:06.110Z,100615.39
2019-04-01T20:27:07.683Z,100608.48
2019-04-01T20:32:17.094Z,100604.38
2019-04-01T20:37:13.621Z,100599.84
2019-04-01T20:42:17.086Z,100600.09
2019-04-01T20:47:18.750Z,100592.42
2019-04-01T20:52:21.459Z,100586.98
2019-04-01T20:57:23.254Z,100583.73
2019-04-01T21:02:24.766Z,100581.33
2019-04-01T21:07:26.318Z,100569.05
2019-04-01T21:12:27.886Z,100567.73
2019-04-01T21:17:29.539Z,100563.19
2019-04-01T21:22:31.104Z,100567.75
2019-04-01T21:27:32.643Z,100558.99
2019-04-01T21:32:34.358Z,100556.37
2019-04-01T21:37:36.092Z,100550.82
2019-04-01T21:42:37.813Z,100540.29
2019-04-01T21:47:40.196Z,100539.61
2019-04-01T21:52:42.705Z,100545.97
2019-04-01T21:57:44.403Z,100533.59
2019-04-01T22:02:46.145Z,100533.40
2019-04-01T22:07:47.859Z,100525.73
2019-04-01T22:12:52.369Z,100534.09
2019-04-01T22:17:53.146Z,100522.98
2019-04-01T22:22:54.714Z,100523.61
2019-04-01T22:27:56.388Z,100507.52
2019-04-01T22:32:58.062Z,100504.09
2019-04-01T22:37:59.763Z,100491.17
2019-04-01T22:43:01.439Z,100486.97
2019-04-01T22:48:03.276Z,100481.09
2019-04-01T22:53:05.134Z,100470.77
2019-04-01T22:58:06.826Z,100475.59
2019-04-01T23:03:08.389Z,100471.58
2019-04-01T23:08:10.056Z,100467.92
2019-04-01T23:13:11.747Z,100466.69
2019-04-01T23:18:13.423Z,100465.58
2019-04-01T23:23:15.121Z,100462.75
2019-04-01T23:28:16.799Z,100458.61
2019-04-01T23:33:18.469Z,100456.52
2019-04-01T23:38:20.123Z,100458.50
2019-04-01T23:43:21.684Z,100447.13
2019-04-01T23:48:23.274Z,100442.31
2019-04-01T23:53:24.821Z,100442.92
2019-04-01T23:58:26.502Z,100429.46
